Time;durP1;ratioP1;P1;durP2;ratioP2;P2;SDS_P1;SDS_P2;PMS_P1;PMS_P2;Temp;Humidity;BMP_temperature;BMP_pressure;BME280_temperature;BME280_humidity;BME280_pressure;Samples;Min_cycle;Max_cycle;Signal;HPM_P1;HPM_P2
2022/05/08 00:02:35;;;;;;;2.42;1.58;;;19.40;37.50;;;;;;21004820;28;20113;-65
2022/05/08 00:12:37;;;;;;;3.40;1.92;;;19.30;37.70;;;;;;21002727;28;20053;-73
2022/05/08 00:22:43;;;;;;;3.20;1.90;;;19.20;37.90;;;;;;21001671;28;20392;-74
2022/05/08 00:32:45;;;;;;;5.32;1.75;;;19.10;37.80;;;;;;21001407;28;20080;-74
2022/05/08 00:42:46;;;;;;;4.28;2.00;;;19.00;38.30;;;;;;20999923;28;20063;-72
2022/05/08 00:52:47;;;;;;;3.17;2.05;;;19.00;38.50;;;;;;20981628;28;20056;-73
2022/05/08 01:02:49;;;;;;;3.35;1.80;;;18.80;38.90;;;;;;20997422;28;20056;-71
2022/05/08 01:12:50;;;;;;;5.63;2.10;;;18.70;39.10;;;;;;20998705;28;20086;-73
2022/05/08 01:22:51;;;;;;;3.92;2.15;;;18.70;39.40;;;;;;20997698;28;20135;-67
2022/05/08 01:32:57;;;;;;;5.83;2.20;;;18.30;40.90;;;;;;21000634;28;20135;-72
2022/05/08 01:43:05;;;;;;;3.85;1.90;;;18.20;42.10;;;;;;21001114;28;20055;-64
2022/05/08 01:53:15;;;;;;;3.22;1.98;;;18.00;42.30;;;;;;20996214;28;20064;-73
2022/05/08 02:03:32;;;;;;;6.65;2.13;;;17.90;42.60;;;;;;20995619;28;20082;-74
2022/05/08 02:13:45;;;;;;;4.95;2.60;;;17.70;45.00;;;;;;20995163;28;20485;-72
2022/05/08 02:24:05;;;;;;;4.88;2.30;;;17.40;45.90;;;;;;20994355;28;20114;-72
2022/05/08 02:34:15;;;;;;;6.03;2.78;;;17.10;46.70;;;;;;20995307;28;20044;-73
2022/05/08 02:44:25;;;;;;;9.50;2.80;;;17.10;47.00;;;;;;21000766;28;20091;-73
2022/05/08 02:54:32;;;;;;;4.05;2.35;;;16.90;47.60;;;;;;21009761;28;20063;-73
2022/05/08 03:04:39;;;;;;;6.28;2.40;;;16.70;48.30;;;;;;21009266;28;20052;-66
2022/05/08 03:14:44;;;;;;;5.43;2.30;;;16.60;48.60;;;;;;20990144;28;20082;-69
2022/05/08 03:24:49;;;;;;;4.85;2.72;;;16.40;49.50;;;;;;21006522;28;20052;-67
2022/05/08 03:34:54;;;;;;;4.38;2.20;;;16.20;50.10;;;;;;21007313;28;20052;-64
2022/05/08 03:44:57;;;;;;;3.80;2.67;;;16.00;50.80;;;;;;21005665;28;20408;-71
2022/05/08 03:55:00;;;;;;;4.75;2.28;;;15.90;51.20;;;;;;20986863;28;20041;-64
2022/05/08 04:05:03;;;;;;;6.85;2.20;;;15.70;51.80;;;;;;21005286;28;20055;-73
2022/05/08 04:16:15;;;;;;;5.07;2.88;;;15.40;52.80;;;;;;21003011;28;20044;-65
2022/05/08 04:25:27;;;;;;;5.15;2.80;;;15.20;53.70;;;;;;21002965;28;20070;-69
2022/05/08 04:35:28;;;;;;;6.40;2.50;;;15.10;54.30;;;;;;21002151;28;20477;-69
2022/05/08 04:45:30;;;;;;;3.15;2.58;;;15.00;54.40;;;;;;21001511;28;20548;-73
2022/05/08 04:55:31;;;;;;;5.55;2.83;;;15.00;54.20;;;;;;20999859;28;20044;-69
2022/05/08 05:05:34;;;;;;;4.15;2.75;;;14.90;54.40;;;;;;21002151;28;20048;-70
2022/05/08 05:15:35;;;;;;;5.47;3.22;;;14.80;54.30;;;;;;21006689;28;20481;-72
2022/05/08 05:25:37;;;;;;;6.60;2.63;;;14.90;54.40;;;;;;20999076;28;20404;-71
2022/05/08 05:35:40;;;;;;;5.78;3.20;;;14.70;54.80;;;;;;20998137;28;20045;-71
2022/05/08 05:45:41;;;;;;;4.80;2.75;;;14.80;54.60;;;;;;20997327;28;20461;-72
2022/05/08 05:55:42;;;;;;;4.07;2.58;;;14.80;54.50;;;;;;20996208;28;20048;-73
2022/05/08 06:05:44;;;;;;;7.47;2.90;;;14.80;54.50;;;;;;20996552;28;20053;-73
2022/05/08 06:15:45;;;;;;;4.85;3.03;;;14.70;55.00;;;;;;20979245;28;20052;-70
2022/05/08 06:25:47;;;;;;;3.95;2.90;;;;;;;;;;21011612;28;20398;-74
2022/05/08 06:35:49;;;;;;;4.97;2.90;;;;;;;;;;21011573;28;20512;-69
2022/05/08 06:45:51;;;;;;;5.80;3.38;;;;;;;;;;21010591;28;20161;-73
2022/05/08 06:55:53;;;;;;;5.05;2.42;;;;;;;;;;21008136;28;20052;-67
2022/05/08 07:05:57;;;;;;;4.80;2.50;;;;;;;;;;21009351;28;20071;-71
2022/05/08 07:15:58;;;;;;;2.87;1.97;;;;;;;;;;21003314;28;20064;-65
2022/05/08 07:26:00;;;;;;;4.50;2.10;;;;;;;;;;21000582;28;20413;-64
2022/05/08 07:36:14;;;;;;;5.30;2.10;;;;;;;;;;21001783;28;20094;-71
2022/05/08 07:46:16;;;;;;;4.10;2.40;;;18.70;40.10;;;;;;20999291;28;20127;-69
2022/05/08 07:56:17;;;;;;;3.95;2.15;;;18.80;40.30;;;;;;21001011;28;20055;-69
2022/05/08 08:06:19;;;;;;;4.40;2.08;;;19.00;39.50;;;;;;20999687;28;20119;-69
2022/05/08 08:16:20;;;;;;;3.55;2.17;;;19.20;39.20;;;;;;20958671;28;1240784;-65
2022/05/08 08:26:22;;;;;;;4.05;2.28;;;;;;;;;;21002835;28;20059;-66
2022/05/08 08:36:24;;;;;;;3.40;2.10;;;;;;;;;;21001364;28;20048;-65
2022/05/08 08:56:49;;;;;;;5.65;2.50;;;20.00;37.40;;;;;;21000395;28;20053;-68
2022/05/08 09:06:51;;;;;;;4.47;2.65;;;;;;;;;;20999757;28;20048;-72
2022/05/08 09:16:53;;;;;;;4.32;2.13;;;;;;;;;;20998021;28;20056;-73
2022/05/08 09:27:14;;;;;;;5.70;1.98;;;;;;;;;;21008690;28;20143;-74
2022/05/08 09:37:16;;;;;;;5.22;1.80;;;;;;;;;;20996304;28;20064;-72
2022/05/08 09:47:36;;;;;;;3.90;2.00;;;;;;;;;;20995636;28;20386;-74
2022/05/08 09:57:41;;;;;;;6.20;2.70;;;22.00;34.70;;;;;;20996957;28;20063;-70
2022/05/08 10:07:43;;;;;;;3.53;1.88;;;21.80;34.70;;;;;;20995123;28;20053;-74
2022/05/08 10:17:45;;;;;;;2.80;1.75;;;21.50;34.70;;;;;;20976915;28;20056;-74
2022/05/08 10:28:08;;;;;;;5.95;3.08;;;22.00;33.00;;;;;;20995818;28;20080;-67
2022/05/08 10:38:19;;;;;;;5.65;1.77;;;22.10;32.50;;;;;;20994992;28;20381;-72
2022/05/08 10:48:25;;;;;;;4.32;1.70;;;22.10;31.70;;;;;;20993779;28;20127;-75
2022/05/08 10:58:27;;;;;;;4.43;1.83;;;22.10;31.70;;;;;;20993721;28;20053;-73
2022/05/08 11:08:32;;;;;;;3.30;1.80;;;;;;;;;;21005125;28;20438;-71
2022/05/08 11:18:34;;;;;;;3.72;2.00;;;22.60;29.50;;;;;;21007804;28;20058;-73
2022/05/08 11:28:46;;;;;;;2.40;1.60;;;22.80;29.80;;;;;;20988515;28;20044;-75
2022/05/08 11:38:50;;;;;;;3.67;1.90;;;23.00;28.90;;;;;;21006838;28;20104;-73
2022/05/08 11:48:52;;;;;;;2.97;2.20;;;22.90;29.10;;;;;;21005324;28;20559;-75
2022/05/08 11:58:55;;;;;;;3.95;1.90;;;23.20;29.00;;;;;;21004313;28;20044;-73
2022/05/08 12:09:06;;;;;;;6.43;3.53;;;23.50;27.90;;;;;;21005810;28;20055;-73
2022/05/08 12:19:16;;;;;;;6.13;3.15;;;23.70;27.90;;;;;;20984890;28;20127;-73
2022/05/08 12:29:22;;;;;;;4.88;3.10;;;23.60;28.20;;;;;;21002843;28;20404;-74
2022/05/08 12:39:24;;;;;;;6.47;4.53;;;24.10;27.10;;;;;;21001176;28;20481;-73
2022/05/08 12:49:26;;;;;;;5.53;1.90;;;24.10;27.00;;;;;;20999893;28;20118;-68
2022/05/08 12:59:42;;;;;;;4.40;2.33;;;24.10;27.00;;;;;;20999752;28;20088;-66
2022/05/08 13:09:44;;;;;;;3.88;2.08;;;24.20;27.20;;;;;;21000796;28;20049;-64
2022/05/08 13:19:47;;;;;;;3.58;2.25;;;24.40;27.00;;;;;;20999405;28;20084;-70
2022/05/08 13:29:49;;;;;;;2.28;1.67;;;24.40;26.00;;;;;;20998568;28;20496;-64
2022/05/08 13:39:50;;;;;;;4.03;1.83;;;24.40;26.50;;;;;;20998708;28;20442;-72
2022/05/08 13:49:54;;;;;;;2.70;1.67;;;24.50;25.50;;;;;;20996696;28;20044;-68
2022/05/08 13:59:56;;;;;;;7.00;1.88;;;24.60;25.50;;;;;;20995856;28;20084;-64
2022/05/08 14:09:58;;;;;;;3.47;2.35;;;24.70;26.50;;;;;;20995874;28;20049;-76
2022/05/08 14:20:00;;;;;;;3.17;1.83;;;25.00;26.40;;;;;;20994852;28;20060;-65
2022/05/08 14:30:03;;;;;;;4.80;1.87;;;25.10;26.30;;;;;;20976482;28;20041;-69
2022/05/08 14:40:05;;;;;;;3.97;1.80;;;25.10;26.60;;;;;;21002084;28;20502;-73
2022/05/08 14:50:07;;;;;;;4.30;1.80;;;25.10;27.10;;;;;;21009335;28;20048;-64
2022/05/08 15:00:09;;;;;;;3.67;2.10;;;25.30;27.00;;;;;;21009013;28;20132;-64
2022/05/08 15:10:11;;;;;;;;;;;25.60;26.90;;;;;;21008810;28;20052;-71
2022/05/08 15:20:12;;;;;;;3.65;1.63;;;25.80;26.20;;;;;;21008570;28;19924;-74
2022/05/08 15:30:15;;;;;;;4.77;1.80;;;25.60;26.10;;;;;;21008120;28;20400;-69
2022/05/08 15:40:17;;;;;;;3.50;1.35;;;25.50;26.10;;;;;;21005887;28;20061;-63
2022/05/08 15:50:19;;;;;;;2.97;1.40;;;25.60;26.50;;;;;;21004425;28;20040;-73
2022/05/08 16:00:22;;;;;;;4.93;1.90;;;25.60;26.60;;;;;;21004884;28;20408;-73
2022/05/08 16:10:24;;;;;;;2.22;1.65;;;25.60;25.50;;;;;;21003358;28;20573;-69
2022/05/08 16:30:46;;;;;;;2.55;1.30;;;25.70;25.30;;;;;;21001923;28;20087;-72
2022/05/08 16:40:47;;;;;;;2.63;1.73;;;25.70;25.50;;;;;;21001239;28;20588;-69
2022/05/08 16:50:50;;;;;;;3.90;1.30;;;25.60;25.60;;;;;;20999604;28;20342;-67
2022/05/08 17:00:52;;;;;;;3.97;1.83;;;25.60;26.00;;;;;;20999384;28;20141;-68
2022/05/08 17:10:54;;;;;;;2.83;2.10;;;25.60;25.70;;;;;;20998787;28;20186;-67
2022/05/08 17:20:56;;;;;;;4.88;2.05;;;25.60;25.70;;;;;;20998984;28;20504;-64
2022/05/08 17:30:58;;;;;;;4.30;2.90;;;25.50;25.80;;;;;;20996712;28;20044;-72
2022/05/08 17:40:59;;;;;;;4.43;1.47;;;25.40;25.90;;;;;;20996668;28;20054;-73
2022/05/08 17:51:02;;;;;;;4.43;2.13;;;25.40;26.30;;;;;;20996568;28;20520;-72
2022/05/08 18:01:04;;;;;;;4.65;1.38;;;25.40;26.30;;;;;;20999126;28;20097;-74
2022/05/08 18:11:11;;;;;;;4.40;1.52;;;25.40;25.10;;;;;;20997919;28;20056;-72
2022/05/08 18:21:14;;;;;;;4.40;1.52;;;25.20;25.10;;;;;;21011299;28;20136;-70
2022/05/08 18:31:16;;;;;;;2.97;1.77;;;25.10;25.20;;;;;;21011924;28;20040;-73
2022/05/08 18:41:19;;;;;;;6.32;2.35;;;25.00;25.50;;;;;;21010053;28;20055;-73
2022/05/08 18:51:20;;;;;;;4.37;1.50;;;24.80;24.80;;;;;;21009976;28;20123;-74
2022/05/08 19:01:23;;;;;;;5.78;2.00;;;24.80;24.50;;;;;;21008912;28;20052;-71
2022/05/08 19:11:25;;;;;;;3.92;1.83;;;24.60;27.00;;;;;;21008509;28;20457;-73
2022/05/08 19:21:26;;;;;;;4.17;1.97;;;24.50;23.90;;;;;;21007392;28;20382;-70
2022/05/08 19:41:48;;;;;;;7.63;4.40;;;24.20;23.60;;;;;;21005334;28;20125;-66
2022/05/08 19:51:50;;;;;;;28.67;20.30;;;24.10;24.10;;;;;;21005710;28;20045;-74
2022/05/08 20:01:52;;;;;;;5.80;2.27;;;23.80;24.80;;;;;;21004632;28;20049;-73
2022/05/08 20:11:55;;;;;;;8.32;5.30;;;23.80;25.30;;;;;;20988594;28;20508;-74
2022/05/08 20:22:03;;;;;;;9.10;4.63;;;23.40;26.70;;;;;;21004233;28;20134;-75
2022/05/08 20:32:07;;;;;;;3.53;1.80;;;23.20;27.60;;;;;;21002768;28;20511;-66
2022/05/08 20:42:08;;;;;;;6.72;3.70;;;23.20;27.40;;;;;;21000960;28;20056;-64
2022/05/08 20:52:10;;;;;;;7.15;4.40;;;23.00;28.40;;;;;;21000912;28;20080;-68
2022/05/08 21:02:12;;;;;;;10.48;4.03;;;22.70;29.40;;;;;;21000541;28;20091;-74
2022/05/08 21:12:13;;;;;;;11.10;4.93;;;22.40;30.40;;;;;;20999090;28;20048;-72
2022/05/08 21:22:15;;;;;;;9.73;7.20;;;22.20;31.20;;;;;;20998769;28;20455;-72
2022/05/08 21:32:17;;;;;;;7.07;4.30;;;22.10;31.50;;;;;;20982915;28;20083;-75
2022/05/08 21:42:19;;;;;;;6.63;3.17;;;22.00;31.90;;;;;;20997798;28;20088;-66
2022/05/08 21:52:20;;;;;;;3.40;2.05;;;21.90;32.40;;;;;;20997195;28;20059;-63
2022/05/08 22:02:22;;;;;;;1.60;1.02;;;21.80;32.20;;;;;;20996865;28;20052;-71
2022/05/08 22:12:24;;;;;;;2.55;1.00;;;21.80;31.00;;;;;;20978065;28;20362;-65
2022/05/08 22:22:26;;;;;;;2.60;1.10;;;21.70;31.20;;;;;;20996675;28;20139;-70
2022/05/08 22:32:28;;;;;;;2.67;1.10;;;21.60;31.40;;;;;;20994972;28;20139;-64
2022/05/08 22:42:29;;;;;;;2.03;1.10;;;21.50;31.50;;;;;;20993801;28;20059;-71
2022/05/08 22:52:31;;;;;;;2.20;1.08;;;21.40;31.90;;;;;;20975547;28;20044;-64
2022/05/08 23:02:32;;;;;;;3.35;1.42;;;21.30;33.10;;;;;;21003581;28;20473;-63
2022/05/08 23:12:41;;;;;;;2.10;1.30;;;21.10;33.90;;;;;;21007033;28;20052;-67
2022/05/08 23:22:47;;;;;;;2.90;1.40;;;21.00;34.60;;;;;;21008099;28;20054;-73
2022/05/08 23:32:51;;;;;;;1.80;1.23;;;20.80;35.20;;;;;;21007021;28;20068;-63
2022/05/08 23:42:53;;;;;;;5.38;1.85;;;20.60;35.50;;;;;;21006185;28;20056;-70
2022/05/08 23:52:55;;;;;;;2.30;1.40;;;20.40;36.00;;;;;;21005203;28;20116;-63
